createdAt,value
2022-12-31T00:00:02.444Z,11.78
2022-12-31T00:00:13.250Z,11.78
2022-12-31T00:00:23.778Z,11.83
2022-12-31T00:00:34.820Z,11.80
2022-12-31T00:00:45.640Z,11.85
2022-12-31T00:00:56.692Z,11.80
2022-12-31T00:01:07.684Z,11.82
2022-12-31T00:01:18.463Z,11.80
2022-12-31T00:01:29.533Z,11.82
2022-12-31T00:01:40.534Z,11.78
2022-12-31T00:01:51.361Z,11.85
2022-12-31T00:02:02.562Z,11.82
2022-12-31T00:02:13.191Z,11.83
2022-12-31T00:02:24.153Z,11.83
2022-12-31T00:02:34.826Z,11.85
2022-12-31T00:02:45.514Z,11.77
2022-12-31T00:02:56.422Z,11.82
2022-12-31T00:03:07.103Z,11.83
2022-12-31T00:03:17.735Z,11.82
2022-12-31T00:03:28.664Z,11.85
2022-12-31T00:03:39.241Z,11.85
2022-12-31T00:03:50.232Z,11.86
2022-12-31T00:04:01.027Z,11.83
2022-12-31T00:04:12.088Z,11.85
2022-12-31T00:04:23.129Z,11.83
2022-12-31T00:04:33.922Z,11.86
2022-12-31T00:04:44.954Z,11.86
2022-12-31T00:04:55.947Z,11.86
2022-12-31T00:05:06.780Z,11.85
2022-12-31T00:05:17.816Z,11.83
2022-12-31T00:05:28.791Z,11.83
2022-12-31T00:05:39.596Z,11.86
2022-12-31T00:05:50.660Z,11.83
2022-12-31T00:06:01.633Z,11.83
2022-12-31T00:06:12.446Z,11.87
2022-12-31T00:06:23.489Z,11.86
2022-12-31T00:06:34.482Z,11.86
2022-12-31T00:06:45.283Z,11.86
2022-12-31T00:06:56.352Z,11.89
2022-12-31T00:07:07.321Z,11.86
2022-12-31T00:07:18.126Z,11.90
2022-12-31T00:07:29.200Z,11.89
2022-12-31T00:08:00.176Z,11.90
2022-12-31T00:08:11.243Z,11.90
2022-12-31T00:08:22.228Z,11.93
2022-12-31T00:08:33.013Z,11.94
2022-12-31T00:08:44.097Z,11.94
2022-12-31T00:08:55.083Z,11.90
2022-12-31T00:09:05.869Z,11.96
2022-12-31T00:09:16.954Z,11.93
2022-12-31T00:09:27.942Z,11.96
2022-12-31T00:09:38.707Z,11.96
2022-12-31T00:09:49.776Z,11.99
2022-12-31T00:10:00.783Z,11.99
2022-12-31T00:10:11.563Z,11.97
2022-12-31T00:10:22.618Z,12.02
2022-12-31T00:10:33.625Z,12.01
2022-12-31T00:10:44.412Z,12.05
2022-12-31T00:10:55.459Z,11.96
2022-12-31T00:11:06.447Z,12.01
2022-12-31T00:11:17.240Z,12.02
2022-12-31T00:11:28.323Z,12.01
2022-12-31T00:11:39.330Z,12.01
2022-12-31T00:11:50.101Z,12.04
2022-12-31T00:12:01.182Z,12.01
2022-12-31T00:12:12.174Z,12.05
2022-12-31T00:12:22.967Z,11.97
2022-12-31T00:12:34.043Z,12.01
2022-12-31T00:12:45.040Z,12.05
2022-12-31T00:12:55.823Z,12.02
2022-12-31T00:13:06.893Z,12.05
2022-12-31T00:13:17.892Z,12.02
2022-12-31T00:13:28.664Z,12.05
2022-12-31T00:13:39.742Z,12.02
2022-12-31T00:13:50.750Z,12.01
2022-12-31T00:14:01.554Z,12.04
2022-12-31T00:14:12.625Z,12.01
2022-12-31T00:14:23.595Z,12.06
2022-12-31T00:14:34.391Z,12.06
2022-12-31T00:14:45.454Z,12.04
2022-12-31T00:14:56.455Z,12.05
2022-12-31T00:15:07.260Z,12.02
2022-12-31T00:15:18.329Z,12.06
2022-12-31T00:15:29.324Z,12.02
2022-12-31T00:15:40.118Z,12.06
2022-12-31T00:15:51.188Z,12.05
2022-12-31T00:16:05.505Z,11.99
2022-12-31T00:16:14.188Z,12.02
2022-12-31T00:16:24.187Z,12.05
2022-12-31T00:16:35.176Z,12.09
2022-12-31T00:16:45.953Z,12.05
2022-12-31T00:16:57.022Z,12.02
2022-12-31T00:17:08.029Z,12.02
2022-12-31T00:17:18.795Z,12.02
2022-12-31T00:17:29.860Z,12.02
2022-12-31T00:17:40.854Z,12.06
2022-12-31T00:17:51.641Z,12.12
2022-12-31T00:18:02.709Z,12.04
2022-12-31T00:18:13.701Z,12.05
2022-12-31T00:18:24.490Z,12.05
2022-12-31T00:18:35.557Z,12.06
2022-12-31T00:18:46.564Z,12.06
2022-12-31T00:18:57.372Z,12.08
2022-12-31T00:19:07.895Z,12.12
2022-12-31T00:19:18.876Z,12.08
2022-12-31T00:19:29.662Z,12.09
2022-12-31T00:19:40.737Z,12.09
2022-12-31T00:19:51.760Z,12.08
2022-12-31T00:20:02.538Z,12.08
2022-12-31T00:20:13.606Z,12.09
2022-12-31T00:20:24.644Z,12.06
2022-12-31T00:20:35.390Z,12.11
2022-12-31T00:20:46.453Z,12.08
2022-12-31T00:20:57.464Z,12.09
2022-12-31T00:21:08.239Z,12.12
2022-12-31T00:21:19.359Z,12.11
2022-12-31T00:21:30.289Z,12.15
2022-12-31T00:21:41.083Z,12.11
2022-12-31T00:21:52.141Z,12.08
2022-12-31T00:22:03.130Z,12.11
2022-12-31T00:22:13.931Z,12.13
2022-12-31T00:22:25.007Z,12.11
2022-12-31T00:22:35.980Z,12.11
2022-12-31T00:22:46.787Z,12.16
2022-12-31T00:22:57.326Z,12.12
2022-12-31T00:23:08.309Z,12.12
2022-12-31T00:23:19.098Z,12.13
2022-12-31T00:23:30.189Z,12.13
2022-12-31T00:23:41.171Z,12.12
2022-12-31T00:23:51.950Z,12.13
2022-12-31T00:24:03.040Z,12.13
2022-12-31T00:24:14.021Z,12.13
2022-12-31T00:24:24.811Z,12.16
2022-12-31T00:24:35.970Z,12.11
2022-12-31T00:24:46.942Z,12.20
2022-12-31T00:24:57.776Z,12.15
2022-12-31T00:25:08.819Z,12.15
2022-12-31T00:25:19.806Z,12.13
2022-12-31T00:25:30.592Z,12.21
2022-12-31T00:25:41.651Z,12.20
2022-12-31T00:25:52.663Z,12.19
2022-12-31T00:26:03.440Z,12.19
2022-12-31T00:26:14.505Z,12.21
2022-12-31T00:26:25.530Z,12.16
2022-12-31T00:26:36.306Z,12.21
2022-12-31T00:26:47.377Z,12.21
2022-12-31T00:26:58.365Z,12.19
2022-12-31T00:27:09.149Z,12.21
2022-12-31T00:27:20.218Z,12.23
2022-12-31T00:27:31.225Z,12.21
2022-12-31T00:27:42.007Z,12.24
2022-12-31T00:27:53.075Z,12.21
2022-12-31T00:28:04.062Z,12.26
2022-12-31T00:28:14.854Z,12.21
2022-12-31T00:28:25.934Z,12.23
2022-12-31T00:28:36.921Z,12.20
2022-12-31T00:28:47.725Z,12.24
2022-12-31T00:28:58.782Z,12.23
2022-12-31T00:29:09.773Z,12.26
2022-12-31T00:29:20.575Z,12.26
2022-12-31T00:29:31.646Z,12.21
2022-12-31T00:29:42.648Z,12.21
2022-12-31T00:29:53.424Z,12.24
2022-12-31T00:30:05.175Z,12.23
2022-12-31T00:30:15.041Z,12.21
2022-12-31T00:30:25.955Z,12.26
2022-12-31T00:30:37.072Z,12.19
2022-12-31T00:30:48.055Z,12.26
2022-12-31T00:30:58.890Z,12.24
2022-12-31T00:31:09.437Z,12.23
2022-12-31T00:31:20.469Z,12.23
2022-12-31T00:31:31.250Z,12.27
2022-12-31T00:31:42.341Z,12.24
2022-12-31T00:31:53.288Z,12.27
2022-12-31T00:32:04.081Z,12.30
2022-12-31T00:32:15.159Z,12.26
2022-12-31T00:32:26.126Z,12.30
2022-12-31T00:32:36.923Z,12.27
2022-12-31T00:32:47.989Z,12.31
2022-12-31T00:32:58.969Z,12.27
2022-12-31T00:33:09.758Z,12.29
2022-12-31T00:33:20.832Z,12.30
2022-12-31T00:33:31.827Z,12.27
2022-12-31T00:33:42.623Z,12.26
2022-12-31T00:33:53.695Z,12.30
2022-12-31T00:34:04.679Z,12.30
2022-12-31T00:34:15.482Z,12.27
2022-12-31T00:34:26.585Z,12.30
2022-12-31T00:34:37.559Z,12.29
2022-12-31T00:34:48.337Z,12.33
2022-12-31T00:34:59.412Z,12.31
2022-12-31T00:35:10.402Z,12.24
2022-12-31T00:35:21.196Z,12.33
2022-12-31T00:35:32.257Z,12.33
2022-12-31T00:35:43.259Z,12.30
2022-12-31T00:35:54.048Z,12.29
2022-12-31T00:36:05.125Z,12.31
2022-12-31T00:36:16.081Z,12.27
2022-12-31T00:36:26.881Z,12.34
2022-12-31T00:36:37.977Z,12.33
2022-12-31T00:36:48.939Z,12.33
2022-12-31T00:36:59.738Z,12.30
2022-12-31T00:37:10.795Z,12.30
2022-12-31T00:37:21.795Z,12.26
2022-12-31T00:37:32.597Z,12.33
2022-12-31T00:37:43.658Z,12.29
2022-12-31T00:37:54.674Z,12.33
2022-12-31T00:38:05.461Z,12.38
2022-12-31T00:38:16.498Z,12.37
2022-12-31T00:38:27.514Z,12.33
2022-12-31T00:38:38.288Z,12.33
2022-12-31T00:38:49.364Z,12.37
2022-12-31T00:39:00.364Z,12.31
2022-12-31T00:39:11.168Z,12.34
2022-12-31T00:39:22.228Z,12.33
2022-12-31T00:39:33.221Z,12.38
2022-12-31T00:39:44.011Z,12.37
2022-12-31T00:39:55.085Z,12.39
2022-12-31T00:40:06.078Z,12.38
2022-12-31T00:40:16.865Z,12.34
2022-12-31T00:40:27.928Z,12.41
2022-12-31T00:40:38.916Z,12.34
2022-12-31T00:40:49.716Z,12.37
2022-12-31T00:41:00.772Z,12.39
2022-12-31T00:41:11.756Z,12.37
2022-12-31T00:41:22.570Z,12.41
2022-12-31T00:41:33.632Z,12.41
2022-12-31T00:41:44.616Z,12.39
2022-12-31T00:41:55.423Z,12.38
2022-12-31T00:42:06.484Z,12.37
2022-12-31T00:42:17.495Z,12.39
2022-12-31T00:42:28.296Z,12.38
2022-12-31T00:42:39.355Z,12.39
2022-12-31T00:42:50.341Z,12.37
2022-12-31T00:43:01.137Z,12.44
2022-12-31T00:43:12.223Z,12.38
2022-12-31T00:43:23.198Z,12.38
2022-12-31T00:43:34.013Z,12.42
2022-12-31T00:43:45.097Z,12.38
2022-12-31T00:43:56.089Z,12.44
2022-12-31T00:44:06.878Z,12.39
2022-12-31T00:44:18.001Z,12.33
2022-12-31T00:44:28.981Z,12.42
2022-12-31T00:44:39.761Z,12.39
2022-12-31T00:44:50.846Z,12.38
2022-12-31T00:45:01.817Z,12.44
2022-12-31T00:45:12.624Z,12.42
2022-12-31T00:45:23.681Z,12.45
2022-12-31T00:45:34.676Z,12.42
2022-12-31T00:45:45.549Z,12.39
2022-12-31T00:45:56.102Z,12.45
2022-12-31T00:46:07.105Z,12.44
2022-12-31T00:46:17.892Z,12.45
2022-12-31T00:46:28.455Z,12.42
2022-12-31T00:46:59.376Z,12.44
2022-12-31T00:47:10.440Z,12.42
2022-12-31T00:47:21.442Z,12.46
2022-12-31T00:47:32.240Z,12.45
2022-12-31T00:47:43.287Z,12.44
2022-12-31T00:47:54.272Z,12.48
2022-12-31T00:48:05.074Z,12.51
2022-12-31T00:48:16.153Z,12.45
2022-12-31T00:48:27.153Z,12.45
2022-12-31T00:48:37.934Z,12.45
2022-12-31T00:48:49.000Z,12.45
2022-12-31T00:49:00.061Z,12.48
2022-12-31T00:49:10.829Z,12.48
2022-12-31T00:49:21.920Z,12.46
2022-12-31T00:49:32.907Z,12.46
2022-12-31T00:49:43.702Z,12.48
2022-12-31T00:49:54.763Z,12.44
2022-12-31T00:50:05.758Z,12.45
2022-12-31T00:50:16.556Z,12.48
2022-12-31T00:50:27.627Z,12.44
2022-12-31T00:50:38.601Z,12.44
2022-12-31T00:50:49.419Z,12.45
2022-12-31T00:51:00.489Z,12.49
2022-12-31T00:51:11.475Z,12.49
2022-12-31T00:51:22.231Z,12.46
2022-12-31T00:51:33.312Z,12.44
2022-12-31T00:51:44.291Z,12.45
2022-12-31T00:51:55.072Z,12.48
2022-12-31T00:52:06.146Z,12.45
2022-12-31T00:52:17.138Z,12.42
2022-12-31T00:52:27.922Z,12.46
2022-12-31T00:52:38.981Z,12.45
2022-12-31T00:52:49.965Z,12.41
2022-12-31T00:53:00.752Z,12.46
2022-12-31T00:53:11.821Z,12.44
2022-12-31T00:53:22.820Z,12.45
2022-12-31T00:53:33.626Z,12.48
2022-12-31T00:53:44.675Z,12.46
2022-12-31T00:53:55.693Z,12.45
2022-12-31T00:54:06.457Z,12.45
2022-12-31T00:54:17.521Z,12.42
2022-12-31T00:54:28.552Z,12.46
2022-12-31T00:54:39.337Z,12.46
2022-12-31T00:54:50.403Z,12.46
2022-12-31T00:55:01.397Z,12.45
2022-12-31T00:55:12.181Z,12.52
2022-12-31T00:55:23.249Z,12.46
2022-12-31T00:55:34.228Z,12.48
2022-12-31T00:55:45.031Z,12.48
2022-12-31T00:55:56.088Z,12.46
2022-12-31T00:56:07.104Z,12.46
2022-12-31T00:56:17.868Z,12.46
2022-12-31T00:56:28.933Z,12.45
2022-12-31T00:56:39.927Z,12.49
2022-12-31T00:56:50.731Z,12.46
2022-12-31T00:57:01.807Z,12.46
2022-12-31T00:57:12.780Z,12.42
2022-12-31T00:57:23.573Z,12.46
2022-12-31T00:57:34.638Z,12.48
2022-12-31T00:57:45.651Z,12.48
2022-12-31T00:57:56.456Z,12.49
2022-12-31T00:58:07.490Z,12.46
2022-12-31T00:58:18.493Z,12.51
2022-12-31T00:58:29.287Z,12.46
2022-12-31T00:58:40.343Z,12.48
2022-12-31T00:58:51.335Z,12.46
2022-12-31T00:59:02.119Z,12.48
2022-12-31T00:59:13.182Z,12.51
2022-12-31T00:59:24.179Z,12.51
2022-12-31T00:59:35.000Z,12.49
2022-12-31T00:59:45.534Z,12.48
2022-12-31T00:59:56.521Z,12.48
2022-12-31T01:00:07.325Z,12.49
2022-12-31T01:00:18.379Z,12.51
2022-12-31T01:00:29.368Z,12.56
2022-12-31T01:00:40.159Z,12.54
2022-12-31T01:00:51.226Z,12.54
2022-12-31T01:01:02.297Z,12.52
2022-12-31T01:01:13.264Z,12.56
2022-12-31T01:01:23.974Z,12.52
2022-12-31T01:01:34.729Z,12.54
2022-12-31T01:01:45.795Z,12.54
2022-12-31T01:01:56.564Z,12.54
2022-12-31T01:02:07.155Z,12.51
2022-12-31T01:02:18.253Z,12.57
2022-12-31T01:02:29.172Z,12.60
2022-12-31T01:02:39.945Z,12.56
2022-12-31T01:02:50.389Z,12.57
2022-12-31T01:03:01.044Z,12.59
2022-12-31T01:03:11.604Z,12.57
2022-12-31T01:03:22.473Z,12.56
2022-12-31T01:03:33.002Z,12.54
2022-12-31T01:03:43.984Z,12.56
2022-12-31T01:03:54.779Z,12.57
2022-12-31T01:04:05.828Z,12.59
2022-12-31T01:04:16.808Z,12.54
2022-12-31T01:04:27.599Z,12.60
2022-12-31T01:04:38.710Z,12.57
2022-12-31T01:04:49.682Z,12.59
2022-12-31T01:05:00.470Z,12.59
2022-12-31T01:05:11.537Z,12.57
2022-12-31T01:05:22.532Z,12.59
2022-12-31T01:05:33.321Z,12.60
2022-12-31T01:05:44.396Z,12.63
2022-12-31T01:05:55.411Z,12.60
2022-12-31T01:06:06.236Z,12.63
2022-12-31T01:06:17.305Z,12.64
2022-12-31T01:06:28.263Z,12.60
2022-12-31T01:06:39.051Z,12.63
2022-12-31T01:06:50.150Z,12.59
2022-12-31T01:07:01.135Z,12.62
2022-12-31T01:07:11.934Z,12.62
2022-12-31T01:07:23.003Z,12.63
2022-12-31T01:07:33.987Z,12.60
2022-12-31T01:07:44.783Z,12.66
2022-12-31T01:07:55.864Z,12.59
2022-12-31T01:08:06.851Z,12.60
2022-12-31T01:08:17.654Z,12.62
2022-12-31T01:08:28.730Z,12.62
2022-12-31T01:08:39.697Z,12.60
2022-12-31T01:08:50.485Z,12.63
2022-12-31T01:09:01.555Z,12.60
2022-12-31T01:09:12.545Z,12.64
2022-12-31T01:09:23.341Z,12.64
2022-12-31T01:09:34.404Z,12.63
2022-12-31T01:09:45.417Z,12.66
2022-12-31T01:09:56.219Z,12.62
2022-12-31T01:10:07.306Z,12.64
2022-12-31T01:10:18.273Z,12.64
2022-12-31T01:10:29.079Z,12.63
2022-12-31T01:10:39.622Z,12.62
2022-12-31T01:10:50.598Z,12.63
2022-12-31T01:11:01.419Z,12.63
2022-12-31T01:11:12.490Z,12.66
2022-12-31T01:11:23.484Z,12.63
2022-12-31T01:11:34.254Z,12.67
2022-12-31T01:11:45.315Z,12.64
2022-12-31T01:11:56.303Z,12.66
2022-12-31T01:12:07.090Z,12.66
2022-12-31T01:12:18.159Z,12.69
2022-12-31T01:12:29.154Z,12.64
2022-12-31T01:12:39.950Z,12.67
2022-12-31T01:12:51.012Z,12.67
2022-12-31T01:13:01.999Z,12.66
2022-12-31T01:13:12.825Z,12.67
2022-12-31T01:13:23.875Z,12.69
2022-12-31T01:13:34.865Z,12.67
2022-12-31T01:13:45.654Z,12.69
2022-12-31T01:13:56.726Z,12.67
2022-12-31T01:14:07.718Z,12.70
2022-12-31T01:14:18.523Z,12.70
2022-12-31T01:14:29.602Z,12.70
2022-12-31T01:14:40.571Z,12.66
2022-12-31T01:14:51.378Z,12.74
2022-12-31T01:15:01.923Z,12.66
2022-12-31T01:15:12.904Z,12.71
2022-12-31T01:15:23.833Z,12.67
2022-12-31T01:15:34.377Z,12.70
2022-12-31T01:15:45.359Z,12.67
2022-12-31T01:15:56.241Z,12.69
2022-12-31T01:16:06.816Z,12.69
2022-12-31T01:16:17.794Z,12.64
2022-12-31T01:16:28.579Z,12.74
2022-12-31T01:16:39.637Z,12.70
2022-12-31T01:16:50.634Z,12.70
2022-12-31T01:17:01.421Z,12.69
2022-12-31T01:17:12.492Z,12.69
2022-12-31T01:17:23.500Z,12.74
2022-12-31T01:17:34.271Z,12.74
2022-12-31T01:17:45.345Z,12.69
2022-12-31T01:17:56.323Z,12.78
2022-12-31T01:18:07.163Z,12.78
2022-12-31T01:18:18.188Z,12.71
2022-12-31T01:18:29.180Z,12.71
2022-12-31T01:18:39.969Z,12.74
2022-12-31T01:18:51.046Z,12.74
2022-12-31T01:19:02.044Z,12.74
2022-12-31T01:19:12.839Z,12.77
2022-12-31T01:19:23.899Z,12.75
2022-12-31T01:19:34.897Z,12.75
2022-12-31T01:19:45.673Z,12.77
2022-12-31T01:19:56.790Z,12.75
2022-12-31T01:20:07.765Z,12.78
2022-12-31T01:20:18.567Z,12.81
2022-12-31T01:20:29.632Z,12.77
2022-12-31T01:20:40.626Z,12.71
2022-12-31T01:20:51.419Z,12.84
2022-12-31T01:21:02.489Z,12.79
2022-12-31T01:21:13.490Z,12.79
2022-12-31T01:21:24.301Z,12.81
2022-12-31T01:21:35.360Z,12.81
2022-12-31T01:21:46.345Z,12.81
2022-12-31T01:21:57.148Z,12.84
2022-12-31T01:22:08.190Z,12.84
2022-12-31T01:22:19.179Z,12.85
2022-12-31T01:22:29.986Z,12.84
2022-12-31T01:22:41.036Z,12.85
2022-12-31T01:22:52.016Z,12.82
2022-12-31T01:23:02.823Z,12.84
2022-12-31T01:23:13.889Z,12.85
2022-12-31T01:23:24.869Z,12.87
2022-12-31T01:23:35.664Z,12.87
2022-12-31T01:23:46.749Z,12.85
2022-12-31T01:23:57.750Z,12.93
2022-12-31T01:24:08.521Z,12.89
2022-12-31T01:24:19.595Z,12.93
2022-12-31T01:24:30.591Z,12.92
2022-12-31T01:24:41.386Z,12.93
2022-12-31T01:24:52.439Z,12.88
2022-12-31T01:25:03.461Z,12.88
2022-12-31T01:25:14.255Z,12.95
2022-12-31T01:25:25.338Z,12.92
2022-12-31T01:25:36.344Z,12.89
2022-12-31T01:25:47.116Z,12.89
2022-12-31T01:25:58.173Z,12.89
2022-12-31T01:26:09.169Z,12.87
2022-12-31T01:26:19.960Z,12.89
2022-12-31T01:26:31.038Z,12.89
2022-12-31T01:26:42.013Z,12.93
2022-12-31T01:26:52.798Z,12.89
2022-12-31T01:27:03.873Z,12.85
2022-12-31T01:27:14.852Z,12.92
2022-12-31T01:27:25.651Z,12.92
2022-12-31T01:27:36.716Z,12.93
2022-12-31T01:27:47.718Z,12.89
2022-12-31T01:27:58.513Z,12.93
2022-12-31T01:28:09.586Z,12.89
2022-12-31T01:28:20.570Z,12.92
2022-12-31T01:28:31.366Z,12.95
2022-12-31T01:28:42.426Z,12.87
2022-12-31T01:28:53.412Z,12.96
2022-12-31T01:29:04.202Z,12.92
2022-12-31T01:29:15.279Z,12.93
2022-12-31T01:29:26.277Z,12.92
2022-12-31T01:29:37.050Z,12.95
2022-12-31T01:29:48.117Z,12.89
2022-12-31T01:29:59.137Z,12.95
2022-12-31T01:30:09.960Z,12.96
2022-12-31T01:30:20.490Z,12.97
2022-12-31T01:30:31.482Z,12.95
2022-12-31T01:30:42.316Z,13.00
2022-12-31T01:30:53.423Z,12.93
2022-12-31T01:31:04.411Z,12.92
2022-12-31T01:31:15.265Z,12.95
2022-12-31T01:31:25.848Z,12.93
2022-12-31T01:31:36.805Z,12.97
2022-12-31T01:31:47.594Z,12.99
2022-12-31T01:31:58.657Z,12.96
2022-12-31T01:32:09.653Z,12.92
2022-12-31T01:32:20.455Z,12.99
2022-12-31T01:32:31.546Z,12.96
2022-12-31T01:32:42.500Z,12.99
2022-12-31T01:32:53.295Z,12.97
2022-12-31T01:33:04.365Z,12.96
2022-12-31T01:33:15.350Z,13.03
2022-12-31T01:33:26.135Z,13.00
2022-12-31T01:33:37.204Z,13.04
2022-12-31T01:33:48.205Z,12.97
2022-12-31T01:33:59.006Z,13.02
2022-12-31T01:34:10.064Z,13.00
2022-12-31T01:34:21.047Z,13.00
2022-12-31T01:34:31.833Z,13.00
2022-12-31T01:34:42.909Z,13.00
2022-12-31T01:34:53.898Z,13.02
2022-12-31T01:35:04.694Z,13.02
2022-12-31T01:35:15.795Z,12.99
2022-12-31T01:35:26.787Z,13.00
2022-12-31T01:35:37.583Z,13.02
2022-12-31T01:35:48.628Z,13.02
2022-12-31T01:35:59.624Z,13.00
2022-12-31T01:36:10.421Z,13.03
2022-12-31T01:36:25.582Z,13.02
2022-12-31T01:36:32.488Z,13.03
2022-12-31T01:36:43.281Z,13.07
2022-12-31T01:36:54.325Z,13.03
2022-12-31T01:37:05.340Z,13.03
2022-12-31T01:37:16.112Z,13.04
2022-12-31T01:37:27.183Z,13.02
2022-12-31T01:37:38.162Z,13.09
2022-12-31T01:37:48.962Z,13.07
2022-12-31T01:38:00.058Z,13.03
2022-12-31T01:38:11.006Z,13.03
2022-12-31T01:38:21.793Z,13.04
2022-12-31T01:38:32.864Z,13.06
2022-12-31T01:38:43.875Z,13.06
2022-12-31T01:38:54.647Z,13.03
2022-12-31T01:39:05.724Z,13.00
2022-12-31T01:39:16.703Z,13.06
2022-12-31T01:39:27.483Z,13.06
2022-12-31T01:39:38.549Z,13.04
2022-12-31T01:39:49.577Z,13.06
2022-12-31T01:40:00.334Z,13.09
2022-12-31T01:40:11.396Z,13.07
2022-12-31T01:40:22.408Z,13.07
2022-12-31T01:40:33.194Z,13.07
2022-12-31T01:40:44.257Z,13.07
2022-12-31T01:40:55.258Z,13.04
2022-12-31T01:41:06.059Z,13.04
2022-12-31T01:41:17.105Z,13.04
2022-12-31T01:41:28.108Z,13.07
2022-12-31T01:41:38.918Z,13.09
2022-12-31T01:41:49.982Z,13.04
2022-12-31T01:42:00.958Z,13.09
2022-12-31T01:42:11.766Z,13.07
2022-12-31T01:42:22.828Z,13.09
2022-12-31T01:42:33.813Z,13.07
2022-12-31T01:42:44.625Z,13.12
2022-12-31T01:42:55.738Z,13.07
2022-12-31T01:43:06.673Z,13.09
2022-12-31T01:43:17.459Z,13.11
2022-12-31T01:43:28.516Z,13.11
2022-12-31T01:43:39.526Z,13.11
2022-12-31T01:43:50.300Z,13.15
2022-12-31T01:44:01.404Z,13.07
2022-12-31T01:44:12.408Z,13.06
2022-12-31T01:44:23.170Z,13.14
2022-12-31T01:44:34.246Z,13.12
2022-12-31T01:44:45.243Z,13.15
2022-12-31T01:44:56.029Z,13.14
2022-12-31T01:45:07.102Z,13.09
2022-12-31T01:45:18.100Z,13.12
2022-12-31T01:45:28.894Z,13.11
2022-12-31T01:45:39.436Z,13.12
2022-12-31T01:45:50.424Z,13.09
2022-12-31T01:46:01.258Z,13.14
2022-12-31T01:46:12.314Z,13.14
2022-12-31T01:46:23.352Z,13.07
2022-12-31T01:46:34.123Z,13.11
2022-12-31T01:46:44.693Z,13.07
2022-12-31T01:46:55.675Z,13.15
2022-12-31T01:47:06.517Z,13.14
2022-12-31T01:47:17.527Z,13.14
2022-12-31T01:47:28.514Z,13.15
2022-12-31T01:47:39.304Z,13.17
2022-12-31T01:47:50.371Z,13.15
2022-12-31T01:48:01.352Z,13.15
2022-12-31T01:48:12.141Z,13.18
2022-12-31T01:48:23.214Z,13.14
2022-12-31T01:48:34.217Z,13.17
2022-12-31T01:48:45.017Z,13.17
2022-12-31T01:48:56.099Z,13.17
2022-12-31T01:49:07.078Z,13.18
2022-12-31T01:49:17.879Z,13.20
2022-12-31T01:49:28.948Z,13.20
2022-12-31T01:49:39.938Z,13.12
2022-12-31T01:49:50.740Z,13.18
2022-12-31T01:50:01.850Z,13.21
2022-12-31T01:50:12.792Z,13.14
2022-12-31T01:50:23.578Z,13.18
2022-12-31T01:50:34.669Z,13.17
2022-12-31T01:50:45.653Z,13.20
2022-12-31T01:50:56.439Z,13.17
2022-12-31T01:51:07.538Z,13.17
2022-12-31T01:51:18.566Z,13.20
2022-12-31T01:51:29.332Z,13.18
2022-12-31T01:51:40.416Z,13.21
2022-12-31T01:51:51.380Z,13.20
2022-12-31T01:52:02.171Z,13.20
2022-12-31T01:52:13.240Z,13.21
2022-12-31T01:52:24.250Z,13.18
2022-12-31T01:52:35.052Z,13.18
2022-12-31T01:52:46.098Z,13.22
2022-12-31T01:52:57.109Z,13.22
2022-12-31T01:53:07.893Z,13.24
2022-12-31T01:53:18.946Z,13.22
2022-12-31T01:53:29.938Z,13.22
2022-12-31T01:53:41.087Z,13.25
2022-12-31T01:53:51.570Z,13.21
2022-12-31T01:54:02.560Z,13.25
2022-12-31T01:54:13.336Z,13.24
2022-12-31T01:54:24.419Z,13.25
2022-12-31T01:54:35.405Z,13.22
2022-12-31T01:54:46.194Z,13.22
2022-12-31T01:54:57.250Z,13.27
2022-12-31T01:55:08.235Z,13.24
2022-12-31T01:55:19.048Z,13.22
2022-12-31T01:55:30.100Z,13.24
2022-12-31T01:55:41.104Z,13.22
2022-12-31T01:55:51.925Z,13.24
2022-12-31T01:56:02.972Z,13.29
2022-12-31T01:56:13.969Z,13.22
2022-12-31T01:56:24.764Z,13.25
2022-12-31T01:56:35.835Z,13.22
2022-12-31T01:56:46.837Z,13.27
2022-12-31T01:56:57.612Z,13.25
2022-12-31T01:57:08.678Z,13.22
2022-12-31T01:57:19.657Z,13.27
2022-12-31T01:57:30.444Z,13.25
2022-12-31T01:57:41.523Z,13.22
2022-12-31T01:57:52.506Z,13.25
2022-12-31T01:58:03.296Z,13.27
2022-12-31T01:58:14.360Z,13.22
2022-12-31T01:58:25.335Z,13.25
2022-12-31T01:58:36.166Z,13.27
2022-12-31T01:58:46.694Z,13.27
2022-12-31T01:58:57.681Z,13.24
2022-12-31T01:59:08.473Z,13.27
2022-12-31T01:59:19.526Z,13.25
2022-12-31T01:59:30.510Z,13.22
2022-12-31T01:59:41.309Z,13.29
2022-12-31T01:59:52.385Z,13.29
2022-12-31T02:00:03.391Z,13.29
2022-12-31T02:00:14.164Z,13.32
2022-12-31T02:00:25.229Z,13.30
2022-12-31T02:00:36.255Z,13.29
2022-12-31T02:00:47.045Z,13.29
2022-12-31T02:00:57.605Z,13.29
2022-12-31T02:01:08.592Z,13.30
2022-12-31T02:01:19.585Z,13.29
2022-12-31T02:01:30.404Z,13.32
2022-12-31T02:01:41.034Z,13.33
2022-12-31T02:01:52.010Z,13.36
2022-12-31T02:02:02.701Z,13.30
2022-12-31T02:02:13.248Z,13.37
2022-12-31T02:02:24.145Z,13.36
2022-12-31T02:02:34.792Z,13.33
2022-12-31T02:02:45.407Z,13.30
2022-12-31T02:02:56.339Z,13.33
2022-12-31T02:03:07.440Z,13.36
2022-12-31T02:03:18.456Z,13.27
2022-12-31T02:03:29.274Z,13.32
2022-12-31T02:03:40.283Z,13.33
2022-12-31T02:03:51.268Z,13.29
2022-12-31T02:04:02.069Z,13.37
2022-12-31T02:04:13.152Z,13.32
2022-12-31T02:04:24.125Z,13.33
2022-12-31T02:04:34.914Z,13.32
2022-12-31T02:04:45.992Z,13.38
2022-12-31T02:04:56.973Z,13.32
2022-12-31T02:05:07.778Z,13.36
2022-12-31T02:05:18.841Z,13.36
2022-12-31T02:05:29.824Z,13.38
2022-12-31T02:05:40.614Z,13.38
2022-12-31T02:05:51.702Z,13.36
2022-12-31T02:06:02.687Z,13.37
2022-12-31T02:06:13.483Z,13.37
2022-12-31T02:06:24.556Z,13.37
2022-12-31T02:06:35.547Z,13.36
2022-12-31T02:06:46.352Z,13.37
2022-12-31T02:06:57.401Z,13.38
2022-12-31T02:07:08.404Z,13.40
2022-12-31T02:07:19.188Z,13.41
2022-12-31T02:07:30.262Z,13.40
2022-12-31T02:07:41.268Z,13.38
2022-12-31T02:07:52.056Z,13.43
2022-12-31T02:08:03.111Z,13.41
2022-12-31T02:08:14.091Z,13.37
2022-12-31T02:08:24.898Z,13.40
2022-12-31T02:08:41.808Z,13.41
2022-12-31T02:08:47.998Z,13.38
2022-12-31T02:08:57.611Z,13.38
2022-12-31T02:09:08.667Z,13.41
2022-12-31T02:09:19.661Z,13.41
2022-12-31T02:09:30.485Z,13.40
2022-12-31T02:09:41.523Z,13.37
2022-12-31T02:09:52.514Z,13.41
2022-12-31T02:10:03.312Z,13.44
2022-12-31T02:10:14.371Z,13.43
2022-12-31T02:10:25.359Z,13.43
2022-12-31T02:10:36.187Z,13.44
2022-12-31T02:10:46.719Z,13.41
2022-12-31T02:10:57.743Z,13.41
2022-12-31T02:11:08.511Z,13.38
2022-12-31T02:11:19.580Z,13.38
2022-12-31T02:11:30.569Z,13.41
2022-12-31T02:11:41.373Z,13.43
2022-12-31T02:11:52.436Z,13.40
2022-12-31T02:12:03.441Z,13.43
2022-12-31T02:12:14.227Z,13.38
2022-12-31T02:12:25.306Z,13.40
2022-12-31T02:12:36.304Z,13.41
2022-12-31T02:12:47.109Z,13.43
2022-12-31T02:12:58.159Z,13.41
2022-12-31T02:13:09.182Z,13.40
2022-12-31T02:13:19.971Z,13.41
2022-12-31T02:13:31.043Z,13.43
2022-12-31T02:13:42.023Z,13.41
2022-12-31T02:13:58.207Z,13.43
2022-12-31T02:14:04.902Z,13.38
2022-12-31T02:14:14.823Z,13.43
2022-12-31T02:14:25.603Z,13.41
2022-12-31T02:14:36.681Z,13.43
2022-12-31T02:14:47.663Z,13.38
2022-12-31T02:14:58.448Z,13.43
2022-12-31T02:15:09.553Z,13.44
2022-12-31T02:15:20.525Z,13.38
2022-12-31T02:15:31.320Z,13.47
2022-12-31T02:15:42.455Z,13.41
2022-12-31T02:15:53.493Z,13.46
2022-12-31T02:16:04.371Z,13.47
2022-12-31T02:16:15.147Z,13.44
2022-12-31T02:16:26.202Z,13.44
2022-12-31T02:16:36.955Z,13.46
2022-12-31T02:16:48.016Z,13.46
2022-12-31T02:16:59.002Z,13.43
2022-12-31T02:17:09.819Z,13.44
2022-12-31T02:17:20.873Z,13.41
2022-12-31T02:17:31.857Z,13.44
2022-12-31T02:17:42.655Z,13.46
2022-12-31T02:17:53.718Z,13.43
2022-12-31T02:18:04.737Z,13.44
2022-12-31T02:18:15.519Z,13.47
2022-12-31T02:18:26.594Z,13.43
2022-12-31T02:18:37.660Z,13.43
2022-12-31T02:18:48.447Z,13.44
2022-12-31T02:18:59.522Z,13.44
2022-12-31T02:19:10.510Z,13.44
2022-12-31T02:19:21.283Z,13.47
2022-12-31T02:19:32.346Z,13.46
2022-12-31T02:19:43.350Z,13.46
2022-12-31T02:19:54.146Z,13.49
2022-12-31T02:20:05.218Z,13.43
2022-12-31T02:20:16.219Z,13.43
2022-12-31T02:20:26.996Z,13.46
2022-12-31T02:20:38.060Z,13.52
2022-12-31T02:20:49.045Z,13.44
2022-12-31T02:20:59.875Z,13.47
2022-12-31T02:21:10.489Z,13.46
2022-12-31T02:21:21.085Z,13.46